Time;durP1;ratioP1;P1;durP2;ratioP2;P2;SDS_P1;SDS_P2;PMS_P1;PMS_P2;Temp;Humidity;BMP_temperature;BMP_pressure;BME280_temperature;BME280_humidity;BME280_pressure;Samples;Min_cycle;Max_cycle;Signal;HPM_P1;HPM_P2
2023/04/20 00:01:46;;;;;;;7.50;4.88;;;24.00;99.90;;;;;;4992124;28;20452;-44
2023/04/20 00:04:14;;;;;;;7.30;4.50;;;24.00;99.90;;;;;;4994983;28;20038;-44
2023/04/20 00:06:41;;;;;;;;;;;24.00;99.90;;;;;;4995171;28;20387;-44
2023/04/20 00:09:07;;;;;;;7.70;4.80;;;24.00;99.90;;;;;;4986293;28;19909;-44
2023/04/20 00:11:33;;;;;;;9.32;5.18;;;24.00;99.90;;;;;;4990719;28;20038;-44
2023/04/20 00:13:59;;;;;;;11.20;5.13;;;24.00;99.90;;;;;;4995133;28;20031;-45
2023/04/20 00:16:25;;;;;;;6.88;4.85;;;24.00;99.90;;;;;;4994634;28;20497;-44
2023/04/20 00:18:51;;;;;;;7.45;4.75;;;24.00;99.90;;;;;;4994984;28;20027;-44
2023/04/20 00:21:17;;;;;;;7.25;4.55;;;24.00;99.90;;;;;;4994672;28;20018;-44
2023/04/20 00:23:42;;;;;;;6.50;4.55;;;24.00;99.90;;;;;;4994838;28;20030;-44
2023/04/20 00:26:08;;;;;;;8.77;5.13;;;24.00;99.90;;;;;;4981613;28;20480;-45
2023/04/20 00:28:34;;;;;;;9.45;4.50;;;23.90;99.90;;;;;;4994590;28;20031;-44
2023/04/20 00:31:00;;;;;;;6.72;4.28;;;23.90;99.90;;;;;;4994235;28;20026;-44
2023/04/20 00:33:25;;;;;;;7.65;4.93;;;23.90;99.90;;;;;;4981854;28;20023;-44
2023/04/20 00:35:51;;;;;;;8.43;4.70;;;23.90;99.90;;;;;;4977132;28;20026;-44
2023/04/20 00:38:17;;;;;;;7.43;4.82;;;23.90;99.90;;;;;;4994566;28;20023;-44
2023/04/20 00:40:43;;;;;;;5.55;3.97;;;23.90;99.90;;;;;;4994430;28;20110;-44
2023/04/20 00:43:13;;;;;;;6.97;4.32;;;23.90;99.90;;;;;;4993977;28;20022;-44
2023/04/20 00:45:39;;;;;;;6.50;3.95;;;23.90;99.90;;;;;;4994294;28;20046;-44
2023/04/20 00:48:06;;;;;;;6.65;4.30;;;23.90;99.90;;;;;;4993706;28;20472;-44
2023/04/20 00:50:33;;;;;;;6.20;3.97;;;23.90;99.90;;;;;;4994327;28;20018;-44
2023/04/20 00:53:01;;;;;;;7.25;4.70;;;23.90;99.90;;;;;;4981055;28;20022;-44
2023/04/20 00:55:27;;;;;;;;;;;23.90;99.90;;;;;;4993407;28;20031;-44
2023/04/20 00:57:53;;;;;;;9.70;4.80;;;23.90;99.90;;;;;;4993452;28;20008;-45
2023/04/20 01:00:19;;;;;;;8.82;4.43;;;23.90;99.90;;;;;;5011546;22;20062;-51
2023/04/20 01:02:45;;;;;;;7.45;4.32;;;23.90;99.90;;;;;;5010830;28;20030;-50
2023/04/20 01:05:11;;;;;;;7.05;3.97;;;23.90;99.90;;;;;;5013635;28;20104;-51
2023/04/20 01:07:37;;;;;;;8.52;4.10;;;23.90;99.90;;;;;;5013557;28;20051;-50
2023/04/20 01:10:03;;;;;;;5.82;3.63;;;23.80;99.90;;;;;;5013629;28;20467;-50
2023/04/20 01:12:29;;;;;;;6.20;3.58;;;23.80;99.90;;;;;;5013154;28;20466;-50
2023/04/20 01:14:55;;;;;;;6.90;3.72;;;23.80;99.90;;;;;;4995604;28;20033;-50
2023/04/20 01:17:23;;;;;;;7.05;4.10;;;23.80;99.90;;;;;;5013540;28;20485;-50
2023/04/20 01:19:49;;;;;;;4.95;4.32;;;23.80;99.90;;;;;;5013246;28;20044;-50
2023/04/20 01:22:19;;;;;;;7.00;4.53;;;23.80;99.90;;;;;;5013443;28;20025;-51
2023/04/20 01:24:46;;;;;;;6.90;4.13;;;23.80;99.90;;;;;;5013176;28;20430;-52
2023/04/20 01:27:13;;;;;;;4.35;3.30;;;23.80;99.90;;;;;;5013045;28;20068;-51
2023/04/20 01:29:39;;;;;;;5.70;3.35;;;23.80;99.90;;;;;;5012899;28;20486;-52
2023/04/20 01:32:05;;;;;;;4.80;3.55;;;23.80;99.90;;;;;;4995464;28;20037;-51
2023/04/20 01:34:31;;;;;;;4.78;3.42;;;23.80;99.90;;;;;;4995493;28;20026;-51
2023/04/20 01:36:57;;;;;;;4.88;3.58;;;23.80;99.90;;;;;;5013061;28;20034;-51
2023/04/20 01:39:23;;;;;;;4.75;3.63;;;23.80;99.90;;;;;;5012769;28;20074;-51
2023/04/20 01:41:49;;;;;;;4.40;3.47;;;23.70;99.90;;;;;;4995537;28;20025;-51
2023/04/20 01:44:15;;;;;;;6.75;4.20;;;23.70;99.90;;;;;;5012925;28;20453;-51
2023/04/20 01:46:41;;;;;;;4.28;3.42;;;23.70;99.90;;;;;;5012696;28;20505;-55
2023/04/20 01:49:07;;;;;;;6.45;4.05;;;23.70;99.90;;;;;;5012925;28;20131;-54
2023/04/20 01:51:34;;;;;;;5.78;3.55;;;23.70;99.90;;;;;;5012669;28;20097;-51
2023/04/20 01:54:00;;;;;;;5.97;3.50;;;23.70;99.90;;;;;;5012735;28;20079;-52
2023/04/20 01:56:26;;;;;;;7.10;3.47;;;23.70;99.90;;;;;;4994763;28;20033;-51
2023/04/20 01:58:52;;;;;;;6.50;3.90;;;23.70;99.90;;;;;;5012567;28;20177;-50
2023/04/20 02:01:18;;;;;;;5.72;3.03;;;23.70;99.90;;;;;;5013382;28;20069;-50
2023/04/20 02:03:44;;;;;;;5.72;3.28;;;23.70;99.90;;;;;;5012335;28;20486;-50
2023/04/20 02:06:10;;;;;;;5.43;3.28;;;23.70;99.90;;;;;;5012234;28;20022;-52
2023/04/20 02:08:36;;;;;;;5.20;2.95;;;23.70;99.90;;;;;;5012503;28;20489;-54
2023/04/20 02:11:02;;;;;;;6.07;3.60;;;23.70;99.90;;;;;;5012409;28;20025;-50
2023/04/20 02:13:27;;;;;;;5.57;3.33;;;23.70;99.90;;;;;;4975255;28;20375;-50
2023/04/20 02:15:54;;;;;;;5.32;3.05;;;23.70;99.90;;;;;;5004165;28;20021;-52
2023/04/20 02:18:20;;;;;;;4.88;3.25;;;23.70;99.90;;;;;;5012380;28;20025;-52
2023/04/20 02:20:46;;;;;;;5.45;3.10;;;23.70;99.90;;;;;;5012310;28;20434;-51
2023/04/20 02:23:12;;;;;;;5.15;3.30;;;23.70;99.90;;;;;;5012309;28;20049;-51
2023/04/20 02:25:38;;;;;;;4.60;3.22;;;23.70;99.90;;;;;;5012151;28;20034;-51
2023/04/20 02:28:04;;;;;;;6.30;3.30;;;23.70;99.90;;;;;;5012115;28;20076;-51
2023/04/20 02:30:30;;;;;;;5.07;3.13;;;23.70;99.90;;;;;;5012363;28;20026;-51
2023/04/20 02:32:56;;;;;;;6.38;3.08;;;23.60;99.90;;;;;;5012252;28;20362;-52
2023/04/20 02:35:22;;;;;;;4.20;3.10;;;23.70;99.90;;;;;;4994857;28;20034;-53
2023/04/20 02:37:48;;;;;;;3.92;2.97;;;23.70;99.90;;;;;;5011658;28;20018;-53
2023/04/20 02:40:14;;;;;;;7.13;3.38;;;23.70;99.90;;;;;;5011850;28;20398;-52
2023/04/20 02:42:40;;;;;;;5.50;2.97;;;23.60;99.90;;;;;;5012235;28;20459;-53
2023/04/20 02:45:06;;;;;;;3.85;2.85;;;23.60;99.90;;;;;;5011535;28;20095;-52
2023/04/20 02:47:32;;;;;;;5.25;3.30;;;23.60;99.90;;;;;;5012176;28;20386;-52
2023/04/20 02:49:58;;;;;;;3.83;2.58;;;23.60;99.90;;;;;;5011825;28;20029;-54
2023/04/20 02:52:23;;;;;;;5.13;3.50;;;23.60;99.90;;;;;;5012075;28;20032;-52
2023/04/20 02:54:49;;;;;;;5.50;3.03;;;23.60;99.90;;;;;;5011847;28;20022;-52
2023/04/20 02:57:15;;;;;;;4.28;2.78;;;23.60;99.90;;;;;;5011710;28;20029;-53
2023/04/20 02:59:41;;;;;;;5.35;3.20;;;23.60;99.90;;;;;;5012074;28;20473;-53
2023/04/20 03:02:08;;;;;;;5.28;3.00;;;23.60;99.90;;;;;;5012119;28;20028;-53
2023/04/20 03:04:33;;;;;;;5.05;3.05;;;23.60;99.90;;;;;;5011847;28;20108;-54
2023/04/20 03:07:00;;;;;;;3.53;2.78;;;23.60;99.90;;;;;;5012039;28;20439;-53
2023/04/20 03:09:26;;;;;;;4.55;2.85;;;23.60;99.90;;;;;;5011752;28;20015;-53
2023/04/20 03:11:53;;;;;;;4.82;3.25;;;23.60;99.90;;;;;;5012315;28;20073;-53
2023/04/20 03:14:19;;;;;;;3.90;2.80;;;23.60;99.90;;;;;;5011817;28;20022;-54
2023/04/20 03:16:45;;;;;;;5.28;2.95;;;23.60;99.90;;;;;;4994048;28;20109;-54
2023/04/20 03:19:10;;;;;;;4.70;3.20;;;23.60;99.90;;;;;;5012781;28;20120;-54
2023/04/20 03:21:36;;;;;;;5.55;3.15;;;23.60;99.90;;;;;;5015526;28;20014;-55
2023/04/20 03:24:02;;;;;;;4.72;3.38;;;23.60;99.90;;;;;;5015535;28;20033;-54
2023/04/20 03:26:28;;;;;;;4.15;3.30;;;23.60;99.90;;;;;;5015240;28;20025;-53
2023/04/20 03:28:54;;;;;;;4.45;2.63;;;23.60;99.90;;;;;;5015796;28;20030;-53
2023/04/20 03:31:20;;;;;;;5.20;3.42;;;23.60;99.90;;;;;;5015164;28;20470;-52
2023/04/20 03:33:46;;;;;;;4.05;2.83;;;23.60;99.90;;;;;;5015417;28;20030;-52
2023/04/20 03:36:12;;;;;;;4.03;3.10;;;23.50;99.90;;;;;;5015375;28;20057;-54
2023/04/20 03:38:37;;;;;;;5.70;3.60;;;23.60;99.90;;;;;;4997419;28;20076;-54
2023/04/20 03:41:04;;;;;;;4.00;2.95;;;23.60;99.90;;;;;;5015343;28;20025;-52
2023/04/20 03:43:30;;;;;;;5.00;3.17;;;23.60;99.90;;;;;;5014949;28;20392;-52
2023/04/20 03:45:55;;;;;;;5.55;3.25;;;23.50;99.90;;;;;;5015397;28;20027;-52
2023/04/20 03:48:21;;;;;;;5.53;3.30;;;23.50;99.90;;;;;;5014995;28;20068;-53
2023/04/20 03:50:47;;;;;;;5.13;3.17;;;23.50;99.90;;;;;;5015099;28;20026;-52
2023/04/20 03:53:13;;;;;;;4.45;2.90;;;23.50;99.90;;;;;;5014821;28;20386;-51
2023/04/20 03:55:38;;;;;;;6.65;3.65;;;23.50;99.90;;;;;;5014881;28;20025;-52
2023/04/20 03:58:05;;;;;;;5.20;3.42;;;23.50;99.90;;;;;;5014365;28;20046;-51
2023/04/20 04:00:32;;;;;;;7.18;3.63;;;23.50;99.90;;;;;;5010352;23;20137;-57
2023/04/20 04:02:58;;;;;;;4.50;2.85;;;23.50;99.90;;;;;;4995338;28;20031;-58
2023/04/20 04:05:24;;;;;;;4.95;2.95;;;23.50;99.90;;;;;;4995571;28;20518;-59
2023/04/20 04:07:50;;;;;;;7.15;3.47;;;23.50;99.90;;;;;;4995218;28;20041;-60
2023/04/20 04:10:17;;;;;;;4.32;3.17;;;23.50;99.90;;;;;;4994884;28;20468;-59
2023/04/20 04:12:44;;;;;;;4.40;2.80;;;23.50;99.90;;;;;;4995148;28;20029;-58
2023/04/20 04:15:11;;;;;;;6.30;3.72;;;23.50;99.90;;;;;;4995069;28;20060;-58
2023/04/20 04:17:37;;;;;;;5.57;3.58;;;23.40;99.90;;;;;;4994931;28;20038;-58
2023/04/20 04:20:06;;;;;;;4.45;3.20;;;23.50;99.90;;;;;;4994695;28;20030;-59
2023/04/20 04:22:32;;;;;;;4.75;3.45;;;23.50;99.90;;;;;;4994753;28;20030;-58
2023/04/20 04:24:58;;;;;;;8.35;3.95;;;23.50;99.90;;;;;;4994979;28;20377;-58
2023/04/20 04:27:24;;;;;;;5.88;2.90;;;23.40;99.90;;;;;;4993606;28;20040;-58
2023/04/20 04:29:50;;;;;;;5.50;3.28;;;23.40;99.90;;;;;;4994291;28;20034;-59
2023/04/20 04:32:16;;;;;;;4.40;3.25;;;23.40;99.90;;;;;;4993760;28;20565;-58
2023/04/20 04:34:44;;;;;;;4.68;3.33;;;23.40;99.90;;;;;;4994374;28;20080;-58
2023/04/20 04:37:10;;;;;;;5.03;3.30;;;23.40;99.90;;;;;;4994505;28;20028;-58
2023/04/20 04:39:37;;;;;;;5.45;3.55;;;23.40;99.90;;;;;;4994301;28;20491;-59
2023/04/20 04:42:03;;;;;;;5.97;3.38;;;23.40;99.90;;;;;;4994577;28;20129;-58
2023/04/20 04:44:30;;;;;;;4.68;3.05;;;23.40;99.90;;;;;;4994270;28;20026;-58
2023/04/20 04:46:56;;;;;;;5.37;3.03;;;23.40;99.90;;;;;;4994445;28;20037;-58
2023/04/20 04:49:25;;;;;;;4.68;2.85;;;23.40;99.90;;;;;;4994241;28;20270;-59
2023/04/20 04:51:51;;;;;;;4.45;2.83;;;23.40;99.90;;;;;;4993887;28;20053;-59
2023/04/20 04:54:17;;;;;;;5.32;2.65;;;23.40;99.90;;;;;;4994140;28;20054;-59
2023/04/20 04:56:42;;;;;;;5.38;2.88;;;23.40;99.90;;;;;;4993894;28;20464;-59
2023/04/20 04:59:08;;;;;;;5.93;3.10;;;23.40;99.90;;;;;;4994090;28;20468;-59
2023/04/20 05:01:34;;;;;;;4.53;3.13;;;23.40;99.90;;;;;;5011764;28;20051;-59
2023/04/20 05:04:00;;;;;;;5.55;2.95;;;23.40;99.90;;;;;;5013762;28;20033;-59
2023/04/20 05:06:26;;;;;;;6.78;3.03;;;23.40;99.90;;;;;;5013548;28;20022;-58
2023/04/20 05:08:52;;;;;;;5.20;2.85;;;23.40;99.90;;;;;;5013546;28;20041;-58
2023/04/20 05:11:18;;;;;;;3.88;2.50;;;23.30;99.90;;;;;;5013178;28;20026;-59
2023/04/20 05:13:43;;;;;;;3.78;2.92;;;23.30;99.90;;;;;;5013566;28;20024;-59
2023/04/20 05:16:09;;;;;;;3.53;2.78;;;23.30;99.90;;;;;;5013232;28;20168;-59
2023/04/20 05:18:35;;;;;;;5.43;2.88;;;23.30;99.90;;;;;;5012647;28;20034;-59
2023/04/20 05:21:01;;;;;;;3.80;2.58;;;23.30;99.90;;;;;;5013412;28;20026;-60
2023/04/20 05:23:27;;;;;;;4.47;2.60;;;23.40;99.90;;;;;;5013055;28;20018;-59
2023/04/20 05:25:53;;;;;;;5.07;3.33;;;23.30;99.90;;;;;;5013204;28;20053;-59
2023/04/20 05:28:18;;;;;;;5.35;2.88;;;23.30;99.90;;;;;;5012976;28;20029;-59
2023/04/20 05:30:44;;;;;;;5.28;2.70;;;23.30;99.90;;;;;;5012907;28;20411;-60
2023/04/20 05:33:10;;;;;;;4.10;2.90;;;23.30;99.90;;;;;;5012708;28;20026;-59
2023/04/20 05:35:37;;;;;;;5.00;3.60;;;23.30;99.90;;;;;;5012908;28;20026;-60
2023/04/20 05:38:05;;;;;;;4.15;2.67;;;23.30;99.90;;;;;;5013008;28;20030;-60
2023/04/20 05:40:33;;;;;;;3.85;2.50;;;23.30;99.90;;;;;;5012847;28;20371;-59
2023/04/20 05:42:58;;;;;;;4.28;2.70;;;23.30;99.90;;;;;;5012423;28;20065;-58
2023/04/20 05:45:24;;;;;;;3.55;2.60;;;23.30;99.90;;;;;;5012642;28;20060;-58
2023/04/20 05:47:56;;;;;;;4.53;2.67;;;23.30;99.90;;;;;;5012553;28;20026;-60
2023/04/20 05:50:26;;;;;;;3.70;2.50;;;23.30;99.90;;;;;;5012716;28;20116;-58
2023/04/20 05:52:52;;;;;;;3.97;2.67;;;23.30;99.90;;;;;;5012474;28;20037;-58
2023/04/20 05:55:19;;;;;;;4.57;2.65;;;23.30;99.90;;;;;;5012686;28;20030;-60
2023/04/20 05:57:45;;;;;;;3.92;2.55;;;23.30;99.90;;;;;;5012008;28;20027;-61
2023/04/20 06:00:13;;;;;;;3.75;2.60;;;23.30;99.90;;;;;;5012387;28;20038;-60
2023/04/20 06:02:39;;;;;;;4.70;2.83;;;23.30;99.90;;;;;;5012388;28;20041;-61
2023/04/20 06:05:05;;;;;;;3.13;2.40;;;23.30;99.90;;;;;;5012330;28;20407;-60
2023/04/20 06:07:31;;;;;;;3.55;2.17;;;23.30;99.90;;;;;;5012954;28;20490;-60
2023/04/20 06:09:59;;;;;;;12.43;3.22;;;23.30;99.90;;;;;;5012214;28;20037;-59
2023/04/20 06:12:25;;;;;;;3.40;2.70;;;23.20;99.90;;;;;;5012343;28;20071;-59
2023/04/20 06:14:51;;;;;;;5.43;2.75;;;23.30;99.90;;;;;;5012198;28;20030;-60
2023/04/20 06:17:17;;;;;;;4.22;2.72;;;23.30;99.90;;;;;;5012046;28;20029;-61
2023/04/20 06:19:42;;;;;;;4.38;2.50;;;23.30;99.90;;;;;;5012194;28;20037;-60
2023/04/20 06:22:08;;;;;;;4.45;2.88;;;23.30;99.90;;;;;;5012176;28;20105;-61
2023/04/20 06:24:35;;;;;;;5.78;3.05;;;23.30;99.90;;;;;;5012323;28;20022;-61
2023/04/20 06:27:01;;;;;;;5.70;2.90;;;23.30;99.90;;;;;;5012674;28;20030;-59
2023/04/20 06:29:28;;;;;;;7.90;3.45;;;23.30;99.90;;;;;;4994467;28;20037;-61
2023/04/20 06:31:54;;;;;;;7.18;3.20;;;23.30;99.90;;;;;;5012149;28;20025;-58
2023/04/20 06:34:19;;;;;;;3.95;2.85;;;23.30;99.90;;;;;;5012235;28;20022;-58
2023/04/20 06:36:45;;;;;;;6.10;2.95;;;23.30;99.90;;;;;;5012204;28;20025;-58
2023/04/20 06:39:11;;;;;;;5.07;2.92;;;23.30;99.90;;;;;;5012211;28;20064;-58
2023/04/20 06:41:37;;;;;;;5.97;2.80;;;23.30;99.90;;;;;;5011747;28;20025;-58
2023/04/20 06:44:04;;;;;;;5.95;3.15;;;23.30;99.90;;;;;;5012064;28;20494;-58
2023/04/20 06:46:30;;;;;;;4.10;2.70;;;23.20;99.90;;;;;;5011678;28;20092;-58
2023/04/20 06:48:56;;;;;;;4.88;3.13;;;23.20;99.90;;;;;;5012156;28;20042;-58
2023/04/20 06:51:22;;;;;;;4.70;2.90;;;23.20;99.90;;;;;;5011793;28;20093;-58
2023/04/20 06:53:48;;;;;;;6.63;3.17;;;23.30;99.90;;;;;;5012577;28;20025;-57
2023/04/20 06:56:13;;;;;;;4.53;2.88;;;23.20;99.90;;;;;;5015980;28;20022;-58
2023/04/20 06:58:39;;;;;;;5.30;3.10;;;23.30;99.90;;;;;;5015655;28;20575;-57
2023/04/20 07:01:05;;;;;;;7.13;3.30;;;23.30;99.90;;;;;;5015858;28;20080;-57
2023/04/20 07:03:31;;;;;;;5.00;2.67;;;23.20;99.90;;;;;;5015847;28;20104;-58
2023/04/20 07:05:56;;;;;;;3.97;2.85;;;23.20;99.90;;;;;;5015844;28;20022;-58
2023/04/20 07:08:22;;;;;;;5.65;2.22;;;23.30;99.90;;;;;;5015545;28;20018;-58
2023/04/20 07:10:48;;;;;;;6.50;3.20;;;23.30;99.90;;;;;;5015737;28;20026;-58
2023/04/20 07:13:14;;;;;;;5.13;3.00;;;23.30;99.90;;;;;;5015555;28;20093;-57
2023/04/20 07:15:39;;;;;;;7.10;3.50;;;23.30;99.90;;;;;;5015496;28;20053;-57
2023/04/20 07:18:05;;;;;;;5.20;3.38;;;23.20;99.90;;;;;;5015352;28;20053;-59
2023/04/20 07:20:31;;;;;;;4.82;3.47;;;23.30;99.90;;;;;;5015550;28;20046;-59
2023/04/20 07:22:57;;;;;;;4.82;3.20;;;23.30;99.90;;;;;;4997882;28;20033;-58
2023/04/20 07:25:23;;;;;;;5.18;2.80;;;23.30;99.90;;;;;;5015377;28;20105;-57
2023/04/20 07:27:49;;;;;;;6.82;3.08;;;23.30;99.90;;;;;;5015197;28;20026;-58
2023/04/20 07:30:14;;;;;;;5.43;3.20;;;23.30;99.90;;;;;;5015299;28;20041;-58
2023/04/20 07:32:41;;;;;;;4.57;2.92;;;23.30;99.90;;;;;;5015270;28;20080;-58
2023/04/20 07:35:07;;;;;;;6.07;3.25;;;23.30;99.90;;;;;;5015326;28;20022;-58
2023/04/20 07:37:33;;;;;;;4.22;2.75;;;23.30;99.90;;;;;;5015079;28;20022;-58
2023/04/20 07:39:59;;;;;;;7.10;3.67;;;23.30;99.90;;;;;;5014922;28;20593;-58
2023/04/20 07:42:25;;;;;;;6.05;3.15;;;23.30;99.90;;;;;;5014975;28;20060;-58
2023/04/20 07:44:51;;;;;;;4.82;2.90;;;23.30;99.90;;;;;;5014933;28;20088;-57
2023/04/20 07:47:17;;;;;;;6.75;3.42;;;23.30;99.90;;;;;;5015179;28;20022;-58
2023/04/20 07:49:43;;;;;;;5.88;3.00;;;23.30;99.90;;;;;;4997020;28;20053;-57
2023/04/20 07:52:09;;;;;;;6.28;3.58;;;23.30;99.90;;;;;;5015258;28;20040;-57
2023/04/20 07:54:35;;;;;;;5.45;3.38;;;23.30;99.90;;;;;;5014801;28;20053;-60
2023/04/20 07:57:02;;;;;;;7.78;3.83;;;23.30;99.90;;;;;;5014627;28;20041;-58
2023/04/20 07:59:28;;;;;;;4.57;3.30;;;23.30;99.90;;;;;;5014704;28;20030;-57
2023/04/20 08:02:02;;;;;;;6.05;3.22;;;23.30;99.90;;;;;;5014611;28;20030;-57
2023/04/20 08:04:28;;;;;;;5.40;3.20;;;23.30;99.90;;;;;;4997115;28;20033;-57
2023/04/20 08:06:54;;;;;;;5.57;3.38;;;23.30;99.90;;;;;;5014515;28;20028;-58
2023/04/20 08:09:20;;;;;;;6.70;3.25;;;23.30;99.90;;;;;;5014765;28;20105;-59
2023/04/20 08:11:46;;;;;;;7.25;3.22;;;23.30;99.90;;;;;;5014803;28;20037;-57
2023/04/20 08:14:12;;;;;;;7.43;3.90;;;23.30;99.90;;;;;;5014733;28;20026;-58
2023/04/20 08:16:38;;;;;;;7.97;4.00;;;23.40;99.90;;;;;;5014843;28;20028;-59
2023/04/20 08:19:09;;;;;;;5.95;3.72;;;23.30;99.90;;;;;;5014568;28;20034;-58
2023/04/20 08:21:38;;;;;;;7.15;4.00;;;23.30;99.90;;;;;;5014398;28;20534;-59
2023/04/20 08:24:05;;;;;;;7.03;4.50;;;23.30;99.90;;;;;;5014516;28;20022;-59
2023/04/20 08:26:31;;;;;;;6.85;3.92;;;23.40;99.90;;;;;;5014300;28;20022;-57
2023/04/20 08:28:58;;;;;;;7.80;3.60;;;23.40;99.90;;;;;;5014329;28;20029;-59
2023/04/20 08:31:24;;;;;;;9.32;4.57;;;23.40;99.90;;;;;;5014206;28;20041;-58
2023/04/20 08:33:50;;;;;;;8.30;5.32;;;23.40;99.90;;;;;;5014238;28;20013;-58
2023/04/20 08:36:16;;;;;;;7.60;4.00;;;23.40;99.90;;;;;;4996776;28;20026;-58
2023/04/20 08:38:42;;;;;;;6.70;4.07;;;23.40;99.90;;;;;;5014271;28;20490;-57
2023/04/20 08:41:07;;;;;;;7.47;4.45;;;23.40;99.90;;;;;;5014143;28;20109;-57
2023/04/20 08:43:33;;;;;;;8.75;4.55;;;23.40;99.90;;;;;;5013656;28;20030;-58
2023/04/20 08:46:03;;;;;;;9.80;3.83;;;23.40;99.90;;;;;;5014193;28;20025;-57
2023/04/20 08:48:36;;;;;;;8.43;4.78;;;23.40;99.90;;;;;;5013685;28;20109;-58
2023/04/20 08:51:02;;;;;;;8.75;3.88;;;23.40;99.90;;;;;;5013824;28;20026;-58
2023/04/20 08:53:29;;;;;;;7.07;4.40;;;23.40;99.90;;;;;;5013569;28;20058;-58
2023/04/20 08:55:57;;;;;;;6.68;4.05;;;23.40;99.90;;;;;;5013599;28;20026;-58
2023/04/20 08:58:31;;;;;;;8.13;4.13;;;23.40;99.90;;;;;;5013508;28;20433;-58
2023/04/20 09:00:59;;;;;;;7.18;4.55;;;23.40;99.90;;;;;;5013399;28;20192;-58
2023/04/20 09:03:51;;;;;;;6.65;4.55;;;23.40;99.90;;;;;;5013578;28;20018;-58
2023/04/20 09:06:17;;;;;;;10.63;4.60;;;23.40;99.90;;;;;;5008986;28;20492;-57
2023/04/20 09:08:45;;;;;;;9.82;3.90;;;23.40;99.90;;;;;;5013568;28;20383;-58
2023/04/20 09:11:24;;;;;;;8.68;4.57;;;23.50;99.90;;;;;;5013730;28;20022;-57
2023/04/20 09:14:13;;;;;;;8.48;4.55;;;23.50;99.90;;;;;;5013429;28;20490;-58
2023/04/20 09:16:50;;;;;;;8.23;4.32;;;23.50;99.90;;;;;;5012815;28;20030;-58
2023/04/20 09:19:21;;;;;;;6.82;4.55;;;23.50;99.90;;;;;;5013243;28;20034;-58
2023/04/20 09:21:49;;;;;;;7.55;4.68;;;23.50;99.90;;;;;;5013210;28;20009;-58
2023/04/20 09:24:15;;;;;;;;;;;23.50;99.90;;;;;;5013450;28;20033;-57
2023/04/20 09:26:41;;;;;;;10.38;5.57;;;23.50;99.90;;;;;;5013413;28;19905;-57
2023/04/20 09:29:21;;;;;;;6.50;4.07;;;23.50;99.90;;;;;;5013137;28;20026;-57
2023/04/20 09:31:47;;;;;;;6.90;4.72;;;23.50;99.90;;;;;;5013097;28;20109;-57
2023/04/20 09:34:14;;;;;;;9.30;5.40;;;23.50;99.90;;;;;;5013261;28;20032;-57
2023/04/20 09:36:46;;;;;;;7.78;5.35;;;23.50;99.90;;;;;;4994937;28;20379;-56
2023/04/20 09:39:15;;;;;;;9.60;5.88;;;23.60;99.90;;;;;;5013040;28;20065;-57
2023/04/20 09:41:42;;;;;;;9.60;5.65;;;23.60;99.90;;;;;;5012950;28;20014;-56
2023/04/20 09:44:09;;;;;;;10.50;5.88;;;23.60;99.90;;;;;;5012688;28;20383;-57
2023/04/20 09:46:37;;;;;;;9.32;6.30;;;23.60;99.90;;;;;;5012758;28;20479;-57
2023/04/20 09:49:05;;;;;;;9.30;6.25;;;23.60;99.90;;;;;;5012787;28;20030;-57
2023/04/20 09:51:37;;;;;;;10.65;6.30;;;23.60;99.90;;;;;;5012622;28;20018;-57
2023/04/20 09:54:05;;;;;;;9.95;6.50;;;23.60;99.90;;;;;;5012661;28;20033;-57
2023/04/20 09:56:32;;;;;;;12.10;7.45;;;23.60;99.90;;;;;;5012243;28;20021;-57
2023/04/20 09:58:59;;;;;;;11.35;7.97;;;23.60;99.90;;;;;;5012612;28;20037;-57
2023/04/20 10:01:26;;;;;;;11.68;7.38;;;23.70;99.90;;;;;;4994897;28;20105;-58
2023/04/20 10:03:52;;;;;;;10.77;6.43;;;23.70;99.90;;;;;;5012505;28;20038;-58
2023/04/20 10:06:27;;;;;;;11.48;7.18;;;23.70;99.90;;;;;;5012627;28;20060;-58
2023/04/20 10:08:53;;;;;;;11.68;6.95;;;23.60;99.90;;;;;;5012216;28;20100;-58
2023/04/20 10:11:30;;;;;;;10.90;7.38;;;23.70;99.90;;;;;;4994331;28;20038;-58
2023/04/20 10:13:57;;;;;;;10.47;6.63;;;23.70;99.90;;;;;;5012451;28;20029;-57
2023/04/20 10:16:23;;;;;;;13.68;8.50;;;23.70;99.90;;;;;;5012216;28;20030;-58
2023/04/20 10:19:15;;;;;;;11.45;7.63;;;23.70;99.90;;;;;;5012411;28;20033;-59
2023/04/20 10:21:49;;;;;;;10.75;6.60;;;23.70;99.90;;;;;;5007591;28;20030;-58
2023/04/20 10:24:30;;;;;;;13.13;7.35;;;23.70;99.90;;;;;;5012242;28;20026;-57
2023/04/20 10:26:57;;;;;;;12.70;7.65;;;23.70;99.90;;;;;;5012129;28;20483;-58
2023/04/20 10:29:27;;;;;;;10.68;7.00;;;23.80;99.90;;;;;;5011135;28;20471;-57
2023/04/20 10:31:54;;;;;;;10.30;6.60;;;23.80;99.90;;;;;;5012358;28;20022;-58
2023/04/20 10:34:34;;;;;;;10.60;6.95;;;23.80;99.90;;;;;;5012386;28;20026;-57
2023/04/20 10:37:13;;;;;;;11.85;7.43;;;23.80;99.90;;;;;;4971267;28;20450;-58
2023/04/20 10:39:46;;;;;;;10.73;7.07;;;23.80;99.90;;;;;;5011825;28;20066;-57
2023/04/20 10:42:12;;;;;;;8.90;6.60;;;23.90;99.90;;;;;;5012167;28;20033;-57
2023/04/20 10:44:48;;;;;;;9.82;6.18;;;23.90;99.90;;;;;;4994216;28;20029;-57
2023/04/20 10:47:15;;;;;;;9.73;6.43;;;23.90;99.90;;;;;;5012203;28;20026;-57
2023/04/20 10:49:41;;;;;;;9.10;6.13;;;23.90;99.90;;;;;;5011906;28;20271;-57
2023/04/20 10:52:07;;;;;;;9.93;6.50;;;23.90;99.90;;;;;;5012115;28;20034;-57
2023/04/20 10:54:39;;;;;;;8.23;5.82;;;23.90;99.90;;;;;;5011802;28;20029;-57
2023/04/20 10:57:06;;;;;;;10.23;5.57;;;23.90;99.90;;;;;;5011787;28;20033;-58
2023/04/20 10:59:36;;;;;;;9.35;5.60;;;23.90;99.90;;;;;;5011615;28;20479;-58
2023/04/20 11:02:06;;;;;;;9.15;5.90;;;23.90;99.90;;;;;;5011848;28;20037;-57
2023/04/20 11:04:32;;;;;;;11.40;6.13;;;23.90;99.90;;;;;;5011737;28;20045;-57
2023/04/20 11:07:09;;;;;;;7.40;5.13;;;24.00;99.90;;;;;;5011843;28;20018;-57
2023/04/20 11:09:37;;;;;;;11.40;5.70;;;24.00;99.90;;;;;;5011819;28;20109;-57
2023/04/20 11:12:13;;;;;;;8.40;5.70;;;24.00;99.90;;;;;;4994205;28;20156;-58
2023/04/20 11:15:01;;;;;;;13.07;6.33;;;24.00;99.90;;;;;;5011589;28;20037;-57
2023/04/20 11:17:32;;;;;;;9.32;5.80;;;24.10;99.90;;;;;;5011732;28;20022;-57
2023/04/20 11:20:13;;;;;;;8.18;5.13;;;24.00;99.90;;;;;;4993792;28;20045;-57
2023/04/20 11:22:40;;;;;;;9.30;4.63;;;24.10;99.90;;;;;;5011530;28;20510;-57
2023/04/20 11:25:08;;;;;;;9.07;4.47;;;24.10;99.90;;;;;;5011295;28;20014;-57
2023/04/20 11:27:34;;;;;;;9.07;4.55;;;24.10;99.90;;;;;;5011433;28;20048;-58
2023/04/20 11:30:04;;;;;;;6.90;4.28;;;24.10;99.90;;;;;;5011174;28;20026;-57
2023/04/20 11:32:34;;;;;;;7.20;4.20;;;24.10;99.90;;;;;;5011613;28;20021;-58
2023/04/20 11:35:08;;;;;;;8.32;4.68;;;24.10;99.90;;;;;;5011214;28;20022;-58
2023/04/20 11:37:49;;;;;;;7.00;4.75;;;24.10;99.90;;;;;;5011481;28;20029;-58
2023/04/20 11:40:16;;;;;;;7.50;5.15;;;24.10;99.90;;;;;;5012393;28;20057;-59
2023/04/20 11:42:42;;;;;;;6.47;4.45;;;24.20;99.90;;;;;;5015066;28;20033;-58
2023/04/20 11:45:10;;;;;;;8.05;4.03;;;24.20;99.90;;;;;;5014902;28;20024;-57
2023/04/20 11:47:37;;;;;;;6.68;3.88;;;24.20;99.90;;;;;;5015195;28;20033;-57
2023/04/20 11:50:05;;;;;;;8.13;5.18;;;24.20;99.90;;;;;;5014877;28;20050;-57
2023/04/20 11:52:30;;;;;;;6.40;4.25;;;24.20;99.90;;;;;;5015064;28;20547;-57
2023/04/20 11:54:56;;;;;;;6.63;4.15;;;24.30;99.90;;;;;;5014432;28;20109;-56
2023/04/20 11:57:24;;;;;;;8.60;4.40;;;24.20;99.90;;;;;;5015133;28;20101;-56
2023/04/20 11:59:50;;;;;;;7.53;5.30;;;24.30;99.90;;;;;;4997710;28;20042;-56
2023/04/20 12:02:16;;;;;;;8.05;5.07;;;24.30;99.90;;;;;;5014894;28;20534;-56
2023/04/20 12:04:41;;;;;;;9.88;6.43;;;24.30;99.90;;;;;;5014706;28;20498;-57
2023/04/20 12:07:07;;;;;;;7.32;4.95;;;24.30;99.90;;;;;;5014597;28;20030;-57
2023/04/20 12:09:36;;;;;;;8.75;6.13;;;24.30;99.90;;;;;;5014554;28;20019;-56
2023/04/20 12:12:05;;;;;;;9.13;6.00;;;24.30;99.90;;;;;;5014724;28;20030;-56
2023/04/20 12:14:32;;;;;;;7.63;5.38;;;24.30;99.90;;;;;;5014231;28;20456;-56
2023/04/20 12:16:59;;;;;;;9.30;5.47;;;24.30;99.90;;;;;;5014615;28;20029;-56
2023/04/20 12:19:24;;;;;;;7.40;5.53;;;24.30;99.90;;;;;;4996425;28;20091;-57
2023/04/20 12:21:50;;;;;;;9.73;6.25;;;24.40;99.90;;;;;;5014748;28;20030;-57
2023/04/20 12:24:16;;;;;;;10.85;6.20;;;24.40;99.90;;;;;;5014365;28;20061;-56
2023/04/20 12:26:42;;;;;;;8.68;5.63;;;24.40;99.90;;;;;;4996323;28;20021;-57
2023/04/20 12:29:08;;;;;;;7.05;5.88;;;24.40;99.90;;;;;;5013930;28;20030;-57
2023/04/20 12:31:34;;;;;;;8.43;5.60;;;24.50;99.90;;;;;;5013970;28;20075;-57
2023/04/20 12:34:00;;;;;;;13.75;5.95;;;24.50;99.90;;;;;;5014193;28;20383;-57
2023/04/20 12:36:26;;;;;;;8.65;6.15;;;24.50;99.90;;;;;;5014021;28;20022;-57
2023/04/20 12:38:54;;;;;;;8.20;5.10;;;24.50;99.90;;;;;;5014113;28;20125;-57
2023/04/20 12:41:21;;;;;;;10.07;6.75;;;24.50;99.90;;;;;;5013763;28;20093;-57
2023/04/20 12:43:48;;;;;;;9.02;5.03;;;24.50;99.90;;;;;;4996683;28;20036;-57
2023/04/20 12:46:14;;;;;;;7.38;5.15;;;24.50;99.90;;;;;;5013862;28;20425;-57